sensor_id;sensor_type;location;lat;lon;timestamp;pressure;altitude;pressure_sealevel;temperature;humidity
9893;BME280;4985;49.092;8.542;2023-07-31T00:02:17;99336.69;;;23.45;49.50
9893;BME280;4985;49.092;8.542;2023-07-31T00:04:43;99344.75;;;23.45;49.49
9893;BME280;4985;49.092;8.542;2023-07-31T00:07:11;99335.88;;;23.44;49.49
9893;BME280;4985;49.092;8.542;2023-07-31T00:09:38;99335.88;;;23.44;49.49
9893;BME280;4985;49.092;8.542;2023-07-31T00:12:05;99335.03;;;23.44;49.49
9893;BME280;4985;49.092;8.542;2023-07-31T00:14:32;99328.84;;;23.43;49.49
9893;BME280;4985;49.092;8.542;2023-07-31T00:16:58;99326.97;;;23.44;49.49
9893;BME280;4985;49.092;8.542;2023-07-31T00:19:25;99325.34;;;23.43;49.49
9893;BME280;4985;49.092;8.542;2023-07-31T00:21:51;99336.91;;;23.43;49.50
9893;BME280;4985;49.092;8.542;2023-07-31T00:24:19;99333.41;;;23.43;49.48
9893;BME280;4985;49.092;8.542;2023-07-31T00:26:46;99333.41;;;23.43;49.48
9893;BME280;4985;49.092;8.542;2023-07-31T00:29:12;99336.09;;;23.43;49.47
9893;BME280;4985;49.092;8.542;2023-07-31T00:31:39;99333.41;;;23.43;49.47
9893;BME280;4985;49.092;8.542;2023-07-31T00:34:05;99332.59;;;23.42;49.46
9893;BME280;4985;49.092;8.542;2023-07-31T00:36:32;99325.34;;;23.43;49.45
9893;BME280;4985;49.092;8.542;2023-07-31T00:38:58;99321.59;;;23.44;49.42
9893;BME280;4985;49.092;8.542;2023-07-31T00:41:26;99323.47;;;23.43;49.41
9893;BME280;4985;49.092;8.542;2023-07-31T00:43:53;99323.25;;;23.45;49.38
9893;BME280;4985;49.092;8.542;2023-07-31T00:46:20;99319.75;;;23.44;49.38
9893;BME280;4985;49.092;8.542;2023-07-31T00:48:46;99313.53;;;23.44;49.39
9893;BME280;4985;49.092;8.542;2023-07-31T00:51:13;99311.91;;;23.43;49.40
9893;BME280;4985;49.092;8.542;2023-07-31T00:53:41;99314.59;;;23.43;49.39
9893;BME280;4985;49.092;8.542;2023-07-31T00:56:08;99314.84;;;23.41;49.40
9893;BME280;4985;49.092;8.542;2023-07-31T00:58:36;99310.28;;;23.42;49.40
9893;BME280;4985;49.092;8.542;2023-07-31T01:01:02;99308.41;;;23.42;49.40
9893;BME280;4985;49.092;8.542;2023-07-31T01:03:29;99301.41;;;23.41;49.40
9893;BME280;4985;49.092;8.542;2023-07-31T01:06:05;99301.41;;;23.41;49.39
9893;BME280;4985;49.092;8.542;2023-07-31T01:08:41;99302.47;;;23.40;49.39
9893;BME280;4985;49.092;8.542;2023-07-31T01:11:14;99304.09;;;23.41;49.39
9893;BME280;4985;49.092;8.542;2023-07-31T01:13:44;99298.72;;;23.41;49.38
9893;BME280;4985;49.092;8.542;2023-07-31T01:16:10;99293.34;;;23.41;49.38
9893;BME280;4985;49.092;8.542;2023-07-31T01:18:37;99286.34;;;23.40;49.38
9893;BME280;4985;49.092;8.542;2023-07-31T01:21:18;99287.16;;;23.41;49.39
9893;BME280;4985;49.092;8.542;2023-07-31T01:24:16;99289.28;;;23.39;49.38
9893;BME280;4985;49.092;8.542;2023-07-31T01:26:49;99293.59;;;23.40;49.38
9893;BME280;4985;49.092;8.542;2023-07-31T01:29:23;99296.28;;;23.40;49.38
9893;BME280;4985;49.092;8.542;2023-07-31T01:31:53;99294.66;;;23.39;49.39
9893;BME280;4985;49.092;8.542;2023-07-31T01:34:22;99285.25;;;23.36;49.38
9893;BME280;4985;49.092;8.542;2023-07-31T01:36:48;99286.06;;;23.37;49.39
9893;BME280;4985;49.092;8.542;2023-07-31T01:39:15;99281.50;;;23.37;49.41
9893;BME280;4985;49.092;8.542;2023-07-31T01:41:42;99279.88;;;23.36;49.41
9893;BME280;4985;49.092;8.542;2023-07-31T01:44:10;99279.06;;;23.36;49.40
9893;BME280;4985;49.092;8.542;2023-07-31T01:46:36;99273.69;;;23.36;49.40
9893;BME280;4985;49.092;8.542;2023-07-31T01:49:03;99268.31;;;23.36;49.41
9893;BME280;4985;49.092;8.542;2023-07-31T01:51:31;99271.81;;;23.36;49.41
9893;BME280;4985;49.092;8.542;2023-07-31T01:53:59;99262.13;;;23.35;49.41
9893;BME280;4985;49.092;8.542;2023-07-31T01:56:25;99272.06;;;23.35;49.41
9893;BME280;4985;49.092;8.542;2023-07-31T01:58:52;99266.69;;;23.35;49.41
9893;BME280;4985;49.092;8.542;2023-07-31T02:01:20;99260.72;;;23.33;49.40
9893;BME280;4985;49.092;8.542;2023-07-31T02:03:47;99261.31;;;23.35;49.39
9893;BME280;4985;49.092;8.542;2023-07-31T02:06:13;99258.62;;;23.35;49.38
9893;BME280;4985;49.092;8.542;2023-07-31T02:08:40;99250.56;;;23.35;49.38
9893;BME280;4985;49.092;8.542;2023-07-31T02:11:06;99248.69;;;23.35;49.37
9893;BME280;4985;49.092;8.542;2023-07-31T02:13:33;99239.00;;;23.34;49.38
9893;BME280;4985;49.092;8.542;2023-07-31T02:15:59;99237.38;;;23.33;49.37
9893;BME280;4985;49.092;8.542;2023-07-31T02:18:27;99239.00;;;23.34;49.37
9893;BME280;4985;49.092;8.542;2023-07-31T02:20:54;99240.06;;;23.33;49.37
9893;BME280;4985;49.092;8.542;2023-07-31T02:23:21;99233.88;;;23.33;49.38
9893;BME280;4985;49.092;8.542;2023-07-31T02:25:48;99231.19;;;23.33;49.37
9893;BME280;4985;49.092;8.542;2023-07-31T02:28:14;99222.31;;;23.32;49.36
9893;BME280;4985;49.092;8.542;2023-07-31T02:30:44;99223.97;;;23.33;49.35
9893;BME280;4985;49.092;8.542;2023-07-31T02:33:10;99228.50;;;23.33;49.34
9893;BME280;4985;49.092;8.542;2023-07-31T02:35:38;99224.19;;;23.32;49.36
9893;BME280;4985;49.092;8.542;2023-07-31T02:38:05;99224.19;;;23.32;49.37
9893;BME280;4985;49.092;8.542;2023-07-31T02:40:31;99219.88;;;23.31;49.37
9893;BME280;4985;49.092;8.542;2023-07-31T02:42:58;99225.25;;;23.31;49.37
9893;BME280;4985;49.092;8.542;2023-07-31T02:45:24;99229.00;;;23.30;49.37
9893;BME280;4985;49.092;8.542;2023-07-31T02:47:51;99229.00;;;23.30;49.38
9893;BME280;4985;49.092;8.542;2023-07-31T02:50:18;99232.50;;;23.30;49.38
9893;BME280;4985;49.092;8.542;2023-07-31T02:52:46;99222.56;;;23.31;49.36
9893;BME280;4985;49.092;8.542;2023-07-31T02:55:12;99225.50;;;23.29;49.36
9893;BME280;4985;49.092;8.542;2023-07-31T02:57:39;99236.00;;;23.31;49.35
9893;BME280;4985;49.092;8.542;2023-07-31T03:00:06;99231.13;;;23.28;49.34
9893;BME280;4985;49.092;8.542;2023-07-31T03:02:33;99238.69;;;23.31;49.34
9893;BME280;4985;49.092;8.542;2023-07-31T03:05:00;99234.38;;;23.30;49.34
9893;BME280;4985;49.092;8.542;2023-07-31T03:07:26;99234.62;;;23.28;49.36
9893;BME280;4985;49.092;8.542;2023-07-31T03:09:55;99233.81;;;23.28;49.36
9893;BME280;4985;49.092;8.542;2023-07-31T03:12:22;99224.69;;;23.29;49.36
9893;BME280;4985;49.092;8.542;2023-07-31T03:14:48;99230.06;;;23.29;49.35
9893;BME280;4985;49.092;8.542;2023-07-31T03:17:15;99225.75;;;23.28;49.35
9893;BME280;4985;49.092;8.542;2023-07-31T03:19:41;99233.00;;;23.27;49.35
9893;BME280;4985;49.092;8.542;2023-07-31T03:22:08;99236.50;;;23.28;49.34
9893;BME280;4985;49.092;8.542;2023-07-31T03:24:35;99239.19;;;23.28;49.34
9893;BME280;4985;49.092;8.542;2023-07-31T03:27:03;99235.69;;;23.27;49.34
9893;BME280;4985;49.092;8.542;2023-07-31T03:29:30;99236.50;;;23.28;49.33
9893;BME280;4985;49.092;8.542;2023-07-31T03:31:56;99236.50;;;23.28;49.32
9893;BME280;4985;49.092;8.542;2023-07-31T03:34:23;99236.75;;;23.26;49.31
9893;BME280;4985;49.092;8.542;2023-07-31T03:36:49;99229.50;;;23.27;49.30
9893;BME280;4985;49.092;8.542;2023-07-31T03:39:16;99223.31;;;23.26;49.29
9893;BME280;4985;49.092;8.542;2023-07-31T03:41:42;99225.19;;;23.26;49.29
9893;BME280;4985;49.092;8.542;2023-07-31T03:44:10;99220.62;;;23.26;49.29
9893;BME280;4985;49.092;8.542;2023-07-31T03:46:37;99219.00;;;23.25;49.29
9893;BME280;4985;49.092;8.542;2023-07-31T03:49:03;99219.81;;;23.26;49.28
9893;BME280;4985;49.092;8.542;2023-07-31T03:51:30;99233.25;;;23.26;49.27
9893;BME280;4985;49.092;8.542;2023-07-31T03:53:57;99228.94;;;23.24;49.28
9893;BME280;4985;49.092;8.542;2023-07-31T03:56:23;99228.94;;;23.24;49.28
9893;BME280;4985;49.092;8.542;2023-07-31T03:58:50;99238.06;;;23.23;49.28
9893;BME280;4985;49.092;8.542;2023-07-31T04:01:18;99237.00;;;23.24;49.29
9893;BME280;4985;49.092;8.542;2023-07-31T04:03:44;99232.69;;;23.23;49.28
9893;BME280;4985;49.092;8.542;2023-07-31T04:06:11;99225.69;;;23.22;49.28
9893;BME280;4985;49.092;8.542;2023-07-31T04:08:38;99220.31;;;23.22;49.28
9893;BME280;4985;49.092;8.542;2023-07-31T04:11:04;99229.19;;;23.23;49.29
9893;BME280;4985;49.092;8.542;2023-07-31T04:13:31;99231.06;;;23.22;49.29
9893;BME280;4985;49.092;8.542;2023-07-31T04:15:57;99226.72;;;23.21;49.29
9893;BME280;4985;49.092;8.542;2023-07-31T04:18:26;99232.09;;;23.21;49.29
9893;BME280;4985;49.092;8.542;2023-07-31T04:20:52;99227.78;;;23.20;49.30
9893;BME280;4985;49.092;8.542;2023-07-31T04:23:19;99233.16;;;23.20;49.30
9893;BME280;4985;49.092;8.542;2023-07-31T04:25:46;99234.22;;;23.19;49.32
9893;BME280;4985;49.092;8.542;2023-07-31T04:28:12;99235.84;;;23.20;49.32
9893;BME280;4985;49.092;8.542;2023-07-31T04:30:39;99228.84;;;23.19;49.31
9893;BME280;4985;49.092;8.542;2023-07-31T04:33:05;99229.66;;;23.20;49.31
9893;BME280;4985;49.092;8.542;2023-07-31T04:35:33;99225.34;;;23.19;49.30
9893;BME280;4985;49.092;8.542;2023-07-31T04:38:00;99227.78;;;23.20;49.28
9893;BME280;4985;49.092;8.542;2023-07-31T04:40:27;99225.09;;;23.20;49.27
9893;BME280;4985;49.092;8.542;2023-07-31T04:42:53;99225.09;;;23.20;49.26
9893;BME280;4985;49.092;8.542;2023-07-31T04:45:20;99218.09;;;23.19;49.26
9893;BME280;4985;49.092;8.542;2023-07-31T04:47:46;99216.22;;;23.20;49.25
9893;BME280;4985;49.092;8.542;2023-07-31T04:50:13;99211.66;;;23.20;49.24
9893;BME280;4985;49.092;8.542;2023-07-31T04:52:41;99209.25;;;23.19;49.25
9893;BME280;4985;49.092;8.542;2023-07-31T04:55:08;99203.06;;;23.18;49.32
9893;BME280;4985;49.092;8.542;2023-07-31T04:57:35;99203.06;;;23.18;49.32
9893;BME280;4985;49.092;8.542;2023-07-31T05:00:01;99208.44;;;23.18;49.33
9893;BME280;4985;49.092;8.542;2023-07-31T05:02:28;99211.13;;;23.18;49.31
9893;BME280;4985;49.092;8.542;2023-07-31T05:04:54;99214.59;;;23.19;49.30
9893;BME280;4985;49.092;8.542;2023-07-31T05:07:21;99212.16;;;23.17;49.29
9893;BME280;4985;49.092;8.542;2023-07-31T05:09:49;99212.16;;;23.17;49.29
9893;BME280;4985;49.092;8.542;2023-07-31T05:12:15;99201.44;;;23.17;49.29
9893;BME280;4985;49.092;8.542;2023-07-31T05:14:42;99210.56;;;23.16;49.29
9893;BME280;4985;49.092;8.542;2023-07-31T05:17:09;99208.94;;;23.15;49.31
9893;BME280;4985;49.092;8.542;2023-07-31T05:19:35;99208.94;;;23.15;49.32
9893;BME280;4985;49.092;8.542;2023-07-31T05:22:02;99206.25;;;23.15;49.31
9893;BME280;4985;49.092;8.542;2023-07-31T05:24:29;99204.06;;;23.12;49.32
9893;BME280;4985;49.092;8.542;2023-07-31T05:26:57;99207.06;;;23.16;49.32
9893;BME280;4985;49.092;8.542;2023-07-31T05:29:23;99213.50;;;23.15;49.31
9893;BME280;4985;49.092;8.542;2023-07-31T05:31:50;99213.50;;;23.15;49.31
9893;BME280;4985;49.092;8.542;2023-07-31T05:34:16;99210.00;;;23.14;49.31
9893;BME280;4985;49.092;8.542;2023-07-31T05:36:43;99218.03;;;23.14;49.30
9893;BME280;4985;49.092;8.542;2023-07-31T05:39:10;99217.22;;;23.14;49.31
9893;BME280;4985;49.092;8.542;2023-07-31T05:41:36;99211.06;;;23.13;49.33
9893;BME280;4985;49.092;8.542;2023-07-31T05:44:04;99219.09;;;23.13;49.31
9893;BME280;4985;49.092;8.542;2023-07-31T05:46:31;99216.41;;;23.13;49.30
9893;BME280;4985;49.092;8.542;2023-07-31T05:48:58;99212.94;;;23.13;49.31
9893;BME280;4985;49.092;8.542;2023-07-31T05:51:26;99216.41;;;23.13;49.30
9893;BME280;4985;49.092;8.542;2023-07-31T05:53:52;99204.06;;;23.12;49.30
9893;BME280;4985;49.092;8.542;2023-07-31T05:56:19;99211.06;;;23.13;49.31
9893;BME280;4985;49.092;8.542;2023-07-31T05:58:46;99201.37;;;23.12;49.31
9893;BME280;4985;49.092;8.542;2023-07-31T06:01:15;99213.19;;;23.11;49.30
9893;BME280;4985;49.092;8.542;2023-07-31T06:03:42;99207.81;;;23.11;49.30
9893;BME280;4985;49.092;8.542;2023-07-31T06:06:08;99204.06;;;23.12;49.30
9893;BME280;4985;49.092;8.542;2023-07-31T06:08:35;99207.00;;;23.11;49.32
9893;BME280;4985;49.092;8.542;2023-07-31T06:11:02;99212.38;;;23.11;49.31
9893;BME280;4985;49.092;8.542;2023-07-31T06:13:28;99210.50;;;23.11;49.31
9893;BME280;4985;49.092;8.542;2023-07-31T06:15:55;99202.44;;;23.11;49.31
9893;BME280;4985;49.092;8.542;2023-07-31T06:18:23;99201.63;;;23.11;49.30
9893;BME280;4985;49.092;8.542;2023-07-31T06:20:49;99203.47;;;23.10;49.31
9893;BME280;4985;49.092;8.542;2023-07-31T06:23:18;99205.34;;;23.10;49.31
9893;BME280;4985;49.092;8.542;2023-07-31T06:25:45;99203.72;;;23.09;49.33
9893;BME280;4985;49.092;8.542;2023-07-31T06:28:12;99206.41;;;23.09;49.34
9893;BME280;4985;49.092;8.542;2023-07-31T06:30:39;99204.53;;;23.09;49.35
9893;BME280;4985;49.092;8.542;2023-07-31T06:33:05;99196.47;;;23.09;49.35
9893;BME280;4985;49.092;8.542;2023-07-31T06:35:33;99200.22;;;23.08;49.35
9893;BME280;4985;49.092;8.542;2023-07-31T06:38:00;99199.16;;;23.09;49.36
9893;BME280;4985;49.092;8.542;2023-07-31T06:40:26;99197.53;;;23.08;49.35
9893;BME280;4985;49.092;8.542;2023-07-31T06:42:53;99198.34;;;23.09;49.38
9893;BME280;4985;49.092;8.542;2023-07-31T06:45:20;99202.91;;;23.08;49.37
9893;BME280;4985;49.092;8.542;2023-07-31T06:47:47;99201.28;;;23.07;49.37
9893;BME280;4985;49.092;8.542;2023-07-31T06:50:13;99203.97;;;23.07;49.38
9893;BME280;4985;49.092;8.542;2023-07-31T06:52:41;99198.59;;;23.07;49.38
9893;BME280;4985;49.092;8.542;2023-07-31T06:55:16;99201.53;;;23.06;49.41
9893;BME280;4985;49.092;8.542;2023-07-31T06:57:44;99193.22;;;23.07;49.42
9893;BME280;4985;49.092;8.542;2023-07-31T07:00:11;99192.66;;;23.05;49.45
9893;BME280;4985;49.092;8.542;2023-07-31T07:02:38;99189.16;;;23.05;49.47
9893;BME280;4985;49.092;8.542;2023-07-31T07:05:06;99189.16;;;23.05;49.47
9893;BME280;4985;49.092;8.542;2023-07-31T07:07:33;99192.66;;;23.05;49.46
9893;BME280;4985;49.092;8.542;2023-07-31T07:10:01;99190.78;;;23.06;49.47
9893;BME280;4985;49.092;8.542;2023-07-31T07:12:29;99191.03;;;23.04;49.49
9893;BME280;4985;49.092;8.542;2023-07-31T07:14:56;99185.69;;;23.04;49.49
9893;BME280;4985;49.092;8.542;2023-07-31T07:17:23;99176.81;;;23.04;49.52
9893;BME280;4985;49.092;8.542;2023-07-31T07:19:49;99178.69;;;23.03;49.53
9893;BME280;4985;49.092;8.542;2023-07-31T07:22:16;99177.06;;;23.02;49.54
9893;BME280;4985;49.092;8.542;2023-07-31T07:24:43;99176.00;;;23.03;49.54
9893;BME280;4985;49.092;8.542;2023-07-31T07:27:11;99171.69;;;23.02;49.54
9893;BME280;4985;49.092;8.542;2023-07-31T07:29:38;99167.12;;;23.03;49.55
9893;BME280;4985;49.092;8.542;2023-07-31T07:32:05;99168.19;;;23.02;49.54
9893;BME280;4985;49.092;8.542;2023-07-31T07:34:32;99170.87;;;23.02;49.57
9893;BME280;4985;49.092;8.542;2023-07-31T07:36:58;99171.69;;;23.02;49.56
9893;BME280;4985;49.092;8.542;2023-07-31T07:39:25;99167.94;;;23.03;49.55
9893;BME280;4985;49.092;8.542;2023-07-31T07:41:51;99177.06;;;23.02;49.56
9893;BME280;4985;49.092;8.542;2023-07-31T07:44:20;99181.62;;;23.02;49.58
9893;BME280;4985;49.092;8.542;2023-07-31T07:46:47;99178.69;;;23.03;49.58
9893;BME280;4985;49.092;8.542;2023-07-31T07:49:13;99162.56;;;23.03;49.56
9893;BME280;4985;49.092;8.542;2023-07-31T07:51:40;99163.63;;;23.02;49.58
9893;BME280;4985;49.092;8.542;2023-07-31T07:54:07;99164.69;;;23.01;49.61
9893;BME280;4985;49.092;8.542;2023-07-31T07:56:33;99166.31;;;23.02;49.62
9893;BME280;4985;49.092;8.542;2023-07-31T07:59:01;99159.34;;;23.01;49.62
9893;BME280;4985;49.092;8.542;2023-07-31T08:01:29;99161.75;;;23.03;49.62
9893;BME280;4985;49.092;8.542;2023-07-31T08:03:56;99159.09;;;23.03;49.63
9893;BME280;4985;49.092;8.542;2023-07-31T08:06:22;99155.59;;;23.02;49.61
9893;BME280;4985;49.092;8.542;2023-07-31T08:08:49;99151.28;;;23.01;49.62
9893;BME280;4985;49.092;8.542;2023-07-31T08:11:16;99152.09;;;23.02;49.65
9893;BME280;4985;49.092;8.542;2023-07-31T08:13:42;99157.47;;;23.02;49.67
9893;BME280;4985;49.092;8.542;2023-07-31T08:16:09;99153.63;;;22.98;49.66
9893;BME280;4985;49.092;8.542;2023-07-31T08:18:37;99160.94;;;23.02;49.67
9893;BME280;4985;49.092;8.542;2023-07-31T08:21:05;99155.59;;;23.02;49.67
9893;BME280;4985;49.092;8.542;2023-07-31T08:23:32;99162.56;;;23.03;49.64
9893;BME280;4985;49.092;8.542;2023-07-31T08:25:58;99156.16;;;23.04;49.62
9893;BME280;4985;49.092;8.542;2023-07-31T08:28:25;99161.50;;;23.04;49.63
9893;BME280;4985;49.092;8.542;2023-07-31T08:30:52;99152.66;;;23.04;49.64
9893;BME280;4985;49.092;8.542;2023-07-31T08:33:18;99150.22;;;23.02;49.67
9893;BME280;4985;49.092;8.542;2023-07-31T08:35:46;99153.97;;;23.01;49.66
9893;BME280;4985;49.092;8.542;2023-07-31T08:38:13;99145.91;;;23.01;49.69
9893;BME280;4985;49.092;8.542;2023-07-31T08:40:40;99141.59;;;23.00;49.70
9893;BME280;4985;49.092;8.542;2023-07-31T08:43:08;99146.97;;;23.00;49.71
9893;BME280;4985;49.092;8.542;2023-07-31T08:45:35;99148.59;;;23.01;49.71
9893;BME280;4985;49.092;8.542;2023-07-31T08:48:02;99143.22;;;23.01;49.71
9893;BME280;4985;49.092;8.542;2023-07-31T08:50:28;99138.66;;;23.02;49.71
9893;BME280;4985;49.092;8.542;2023-07-31T08:52:56;99134.09;;;23.02;49.71
9893;BME280;4985;49.092;8.542;2023-07-31T08:55:23;99131.44;;;23.02;49.70
9893;BME280;4985;49.092;8.542;2023-07-31T08:57:51;99123.38;;;23.02;49.70
9893;BME280;4985;49.092;8.542;2023-07-31T09:00:19;99123.38;;;23.02;49.71
9893;BME280;4985;49.092;8.542;2023-07-31T09:02:52;99123.38;;;23.02;49.70
9893;BME280;4985;49.092;8.542;2023-07-31T09:05:23;99124.19;;;23.03;49.67
9893;BME280;4985;49.092;8.542;2023-07-31T09:07:50;99117.50;;;23.05;49.68
9893;BME280;4985;49.092;8.542;2023-07-31T09:10:19;99118.00;;;23.02;49.70
9893;BME280;4985;49.092;8.542;2023-07-31T09:12:45;99114.25;;;23.03;49.72
9893;BME280;4985;49.092;8.542;2023-07-31T09:15:13;99116.94;;;23.03;49.79
9893;BME280;4985;49.092;8.542;2023-07-31T09:17:40;99113.44;;;23.03;49.82
9893;BME280;4985;49.092;8.542;2023-07-31T09:20:13;99100.84;;;23.03;49.80
9893;BME280;4985;49.092;8.542;2023-07-31T09:22:40;99098.16;;;23.03;49.79
9893;BME280;4985;49.092;8.542;2023-07-31T09:25:15;99092.78;;;23.03;49.80
9893;BME280;4985;49.092;8.542;2023-07-31T09:27:48;99083.66;;;23.04;49.80
9893;BME280;4985;49.092;8.542;2023-07-31T09:30:15;99084.47;;;23.05;49.78
9893;BME280;4985;49.092;8.542;2023-07-31T09:32:42;99079.91;;;23.05;49.79
9893;BME280;4985;49.092;8.542;2023-07-31T09:35:20;99072.91;;;23.04;49.80
9893;BME280;4985;49.092;8.542;2023-07-31T09:37:51;99072.91;;;23.04;49.80
9893;BME280;4985;49.092;8.542;2023-07-31T09:40:28;99084.72;;;23.03;49.83
9893;BME280;4985;49.092;8.542;2023-07-31T09:43:01;99072.09;;;23.04;49.85
9893;BME280;4985;49.092;8.542;2023-07-31T09:45:28;99075.34;;;23.06;49.83
9893;BME280;4985;49.092;8.542;2023-07-31T09:47:56;99075.34;;;23.06;49.83
9893;BME280;4985;49.092;8.542;2023-07-31T09:50:24;99072.41;;;23.07;49.80
9893;BME280;4985;49.092;8.542;2023-07-31T09:52:51;99073.22;;;23.08;49.80
9893;BME280;4985;49.092;8.542;2023-07-31T09:55:19;99076.16;;;23.06;49.81
9893;BME280;4985;49.092;8.542;2023-07-31T09:57:46;99067.03;;;23.07;49.82
9893;BME280;4985;49.092;8.542;2023-07-31T10:00:16;99071.91;;;23.10;49.79
9893;BME280;4985;49.092;8.542;2023-07-31T10:02:45;99063.28;;;23.08;49.80
9893;BME280;4985;49.092;8.542;2023-07-31T10:05:13;99061.69;;;23.07;49.82
9893;BME280;4985;49.092;8.542;2023-07-31T10:07:42;99065.97;;;23.08;49.83
9893;BME280;4985;49.092;8.542;2023-07-31T10:10:09;99068.66;;;23.08;49.85
9893;BME280;4985;49.092;8.542;2023-07-31T10:12:37;99066.25;;;23.07;49.87
9893;BME280;4985;49.092;8.542;2023-07-31T10:15:04;99056.31;;;23.07;49.87
9893;BME280;4985;49.092;8.542;2023-07-31T10:17:35;99054.69;;;23.06;49.89
9893;BME280;4985;49.092;8.542;2023-07-31T10:20:03;99054.44;;;23.08;49.86
9893;BME280;4985;49.092;8.542;2023-07-31T10:22:30;99057.94;;;23.08;49.85
9893;BME280;4985;49.092;8.542;2023-07-31T10:24:59;99060.62;;;23.08;49.85
9893;BME280;4985;49.092;8.542;2023-07-31T10:27:26;99059.81;;;23.08;49.87
9893;BME280;4985;49.092;8.542;2023-07-31T10:29:55;99063.28;;;23.08;49.88
9893;BME280;4985;49.092;8.542;2023-07-31T10:32:22;99057.69;;;23.10;49.84
9893;BME280;4985;49.092;8.542;2023-07-31T10:34:51;99063.03;;;23.10;49.86
9893;BME280;4985;49.092;8.542;2023-07-31T10:37:28;99066.53;;;23.10;49.87
9893;BME280;4985;49.092;8.542;2023-07-31T10:39:59;99070.87;;;23.11;49.86
9893;BME280;4985;49.092;8.542;2023-07-31T10:42:31;99066.31;;;23.12;49.85
9893;BME280;4985;49.092;8.542;2023-07-31T10:45:00;99059.06;;;23.12;49.85
9893;BME280;4985;49.092;8.542;2023-07-31T10:47:27;99059.06;;;23.12;49.85
9893;BME280;4985;49.092;8.542;2023-07-31T10:50:13;99063.37;;;23.13;49.82
9893;BME280;4985;49.092;8.542;2023-07-31T10:52:44;99055.31;;;23.13;49.82
9893;BME280;4985;49.092;8.542;2023-07-31T10:55:24;99049.94;;;23.13;49.83
9893;BME280;4985;49.092;8.542;2023-07-31T10:57:52;99055.31;;;23.13;49.85
9893;BME280;4985;49.092;8.542;2023-07-31T11:00:21;99054.25;;;23.14;49.84
9893;BME280;4985;49.092;8.542;2023-07-31T11:03:04;99048.34;;;23.12;49.84
9893;BME280;4985;49.092;8.542;2023-07-31T11:05:47;99044.03;;;23.11;49.84
9893;BME280;4985;49.092;8.542;2023-07-31T11:08:16;99049.94;;;23.13;49.84
9893;BME280;4985;49.092;8.542;2023-07-31T11:10:44;99045.38;;;23.14;49.85
9893;BME280;4985;49.092;8.542;2023-07-31T11:13:10;99040.84;;;23.14;49.83
9893;BME280;4985;49.092;8.542;2023-07-31T11:15:36;99033.34;;;23.16;49.82
9893;BME280;4985;49.092;8.542;2023-07-31T11:18:03;99032.25;;;23.17;49.79
9893;BME280;4985;49.092;8.542;2023-07-31T11:20:31;99031.47;;;23.17;49.80
9893;BME280;4985;49.092;8.542;2023-07-31T11:23:00;99023.41;;;23.17;49.82
9893;BME280;4985;49.092;8.542;2023-07-31T11:25:29;99022.34;;;23.18;49.84
9893;BME280;4985;49.092;8.542;2023-07-31T11:27:56;99016.16;;;23.17;49.84
9893;BME280;4985;49.092;8.542;2023-07-31T11:30:23;99014.53;;;23.16;49.85
9893;BME280;4985;49.092;8.542;2023-07-31T11:32:49;99013.47;;;23.17;49.87
9893;BME280;4985;49.092;8.542;2023-07-31T11:35:17;99009.72;;;23.18;49.86
9893;BME280;4985;49.092;8.542;2023-07-31T11:37:44;99010.53;;;23.19;49.86
9893;BME280;4985;49.092;8.542;2023-07-31T11:40:12;99005.97;;;23.19;49.85
9893;BME280;4985;49.092;8.542;2023-07-31T11:42:39;99007.84;;;23.19;49.88
9893;BME280;4985;49.092;8.542;2023-07-31T11:45:06;99011.34;;;23.19;49.87
9893;BME280;4985;49.092;8.542;2023-07-31T11:47:34;98997.91;;;23.19;49.89
9893;BME280;4985;49.092;8.542;2023-07-31T11:50:02;98999.78;;;23.19;49.89
9893;BME280;4985;49.092;8.542;2023-07-31T11:52:30;99005.97;;;23.19;49.91
9893;BME280;4985;49.092;8.542;2023-07-31T11:54:58;98999.53;;;23.20;49.93
9893;BME280;4985;49.092;8.542;2023-07-31T11:57:27;98991.47;;;23.20;49.92
9893;BME280;4985;49.092;8.542;2023-07-31T11:59:55;98973.50;;;23.21;49.92
9893;BME280;4985;49.092;8.542;2023-07-31T12:02:22;98992.28;;;23.21;49.92
9893;BME280;4985;49.092;8.542;2023-07-31T12:04:49;98976.97;;;23.21;49.94
9893;BME280;4985;49.092;8.542;2023-07-31T12:07:16;98980.50;;;23.22;49.94
9893;BME280;4985;49.092;8.542;2023-07-31T12:09:51;98994.75;;;23.22;49.93
9893;BME280;4985;49.092;8.542;2023-07-31T12:12:19;98984.00;;;23.22;49.92
9893;BME280;4985;49.092;8.542;2023-07-31T12:14:48;98980.25;;;23.23;49.92
9893;BME280;4985;49.092;8.542;2023-07-31T12:17:19;98980.25;;;23.23;49.93
9893;BME280;4985;49.092;8.542;2023-07-31T12:19:48;98969.50;;;23.23;49.93
9893;BME280;4985;49.092;8.542;2023-07-31T12:22:15;98961.19;;;23.25;49.94
9893;BME280;4985;49.092;8.542;2023-07-31T12:24:43;98957.69;;;23.24;49.95
9893;BME280;4985;49.092;8.542;2023-07-31T12:27:11;98971.13;;;23.24;49.98
9893;BME280;4985;49.092;8.542;2023-07-31T12:29:38;98954.75;;;23.26;49.97
9893;BME280;4985;49.092;8.542;2023-07-31T12:32:19;98956.63;;;23.26;49.99
9893;BME280;4985;49.092;8.542;2023-07-31T12:34:46;98961.50;;;23.29;49.97
9893;BME280;4985;49.092;8.542;2023-07-31T12:37:12;98959.63;;;23.29;49.95
9893;BME280;4985;49.092;8.542;2023-07-31T12:39:39;98961.78;;;23.32;49.92
9893;BME280;4985;49.092;8.542;2023-07-31T12:42:06;98960.97;;;23.32;49.91
9893;BME280;4985;49.092;8.542;2023-07-31T12:44:33;98947.31;;;23.33;49.90
9893;BME280;4985;49.092;8.542;2023-07-31T12:46:59;98949.16;;;23.33;49.93
9893;BME280;4985;49.092;8.542;2023-07-31T12:49:27;98931.22;;;23.33;49.94
9893;BME280;4985;49.092;8.542;2023-07-31T12:51:54;98924.78;;;23.34;49.93
9893;BME280;4985;49.092;8.542;2023-07-31T12:54:20;98932.81;;;23.34;49.94
9893;BME280;4985;49.092;8.542;2023-07-31T12:56:47;98930.94;;;23.35;49.94
9893;BME280;4985;49.092;8.542;2023-07-31T12:59:14;98934.44;;;23.35;49.93
9893;BME280;4985;49.092;8.542;2023-07-31T13:01:40;98926.13;;;23.37;49.90
9893;BME280;4985;49.092;8.542;2023-07-31T13:04:07;98924.25;;;23.37;49.87
9893;BME280;4985;49.092;8.542;2023-07-31T13:06:35;98922.38;;;23.38;49.88
9893;BME280;4985;49.092;8.542;2023-07-31T13:09:02;98924.00;;;23.39;49.88
9893;BME280;4985;49.092;8.542;2023-07-31T13:11:29;98919.44;;;23.39;49.88
9893;BME280;4985;49.092;8.542;2023-07-31T13:13:56;98915.69;;;23.40;49.85
9893;BME280;4985;49.092;8.542;2023-07-31T13:16:22;98908.44;;;23.41;49.83
9893;BME280;4985;49.092;8.542;2023-07-31T13:18:49;98907.34;;;23.42;49.83
9893;BME280;4985;49.092;8.542;2023-07-31T13:21:17;98906.56;;;23.41;49.83
9893;BME280;4985;49.092;8.542;2023-07-31T13:23:45;98903.87;;;23.41;49.84
9893;BME280;4985;49.092;8.542;2023-07-31T13:26:11;98904.66;;;23.42;49.84